»·PEaware :: AAL523 KRNO-KPHX

AAL523 :: KRNO-KPHX

FLIGHT INFORMATION

Flight Status: Arrived
Operator:
American Airlines
More flights by this operator :: More flights under this callsign
Pilot: John C. (18682)
Aircraft: AIRBUS A320
(A320)
More flights by this aircraft type
Origin: KRNO Reno/Tahoe Intl
United States
Destination: KPHX Phoenix Sky Harbor Intl
United States
More flights between these airports :: More routes between these airports
Route: ZEFFR6 PESKE LIDAT J92 BLD PRFUM WOTRO BRUSR1
File this flight plan on PilotEdge
Remarks:
Altitude:
(Current/Filed)
39,000ft
Speed:
(Current/Filed)
447kts
Departed: 11-May-18 02:02 PM
Arrived: 11-May-18 03:31 PM
Distance/Time
Traveled:
522nm/1:29
Distance/Time
To Go:
Arrived

Flight Plot

Page will automatically refresh every two minutes.

Flight plan parsing failed; only flown route is shown


Map Options




Map Legend


Flown Route
Filed Route
Departure Airport
Arrival Airport
Navaid (VOR, NDB)
Fix

Horizontal Profiles

Position Reports

Time Latitude Longitude Heading Altitude Ground
Speed
11-May-18 13:36 39.505215 -119.773173 180 4415ft 0kts
11-May-18 13:37 39.505215 -119.773173 180 4415ft 0kts
11-May-18 13:38 39.505215 -119.773173 180 4415ft 0kts
11-May-18 13:39 39.505215 -119.773173 180 4415ft 0kts
11-May-18 13:40 39.505215 -119.773173 180 4415ft 0kts
11-May-18 13:41 39.505215 -119.773173 180 4415ft 0kts
11-May-18 13:42 39.505215 -119.773173 180 4415ft 0kts
11-May-18 13:43 39.505215 -119.773173 180 4415ft 0kts
11-May-18 13:44 39.505215 -119.773173 180 4415ft 0kts
11-May-18 13:45 39.505215 -119.773173 180 4415ft 0kts
11-May-18 13:46 39.505215 -119.773173 180 4415ft 0kts
11-May-18 13:47 39.505215 -119.773173 180 4415ft 0kts
11-May-18 13:48 39.505489 -119.773170 180 4415ft 2kts
11-May-18 13:49 39.505918 -119.773427 97 4416ft 1kts
11-May-18 13:50 39.505919 -119.773538 90 4416ft 0kts
11-May-18 13:51 39.505919 -119.773521 90 4416ft 1kts
11-May-18 13:52 39.505910 -119.772211 90 4414ft 0kts
11-May-18 13:53 39.505910 -119.772211 90 4414ft 0kts
11-May-18 13:54 39.505910 -119.772211 90 4414ft 0kts
11-May-18 13:55 39.505910 -119.772211 90 4414ft 0kts
11-May-18 13:56 39.505910 -119.772193 90 4414ft 1kts
11-May-18 13:57 39.502269 -119.771511 179 4412ft 21kts
11-May-18 13:58 39.496529 -119.771524 180 4412ft 19kts
11-May-18 13:59 39.490049 -119.771539 180 4412ft 24kts
11-May-18 14:00 39.483994 -119.771463 149 4421ft 10kts
11-May-18 14:01 39.483764 -119.770578 89 4421ft 1kts
11-May-18 14:02 39.486807 -119.769288 0 4415ft 76kts
11-May-18 14:03 39.531361 -119.778392 345 6778ft 195kts
11-May-18 14:04 39.591407 -119.805801 344 9409ft 267kts
11-May-18 14:05 39.668573 -119.837865 348 12130ft 319kts
11-May-18 14:06 39.735625 -119.783548 72 15415ft 341kts
11-May-18 14:07 39.690649 -119.674607 147 18001ft 399kts
11-May-18 14:08 39.590318 -119.606531 149 20133ft 420kts
11-May-18 14:09 39.484772 -119.535124 150 22248ft 440kts
11-May-18 14:10 39.374437 -119.460802 151 24169ft 458kts
11-May-18 14:11 39.259988 -119.384003 152 25938ft 474kts
11-May-18 14:12 39.141839 -119.305025 153 27571ft 489kts
11-May-18 14:13 39.019925 -119.223838 155 29077ft 502kts
11-May-18 14:14 38.895919 -119.141565 158 30734ft 505kts
11-May-18 14:15 38.772535 -119.054974 146 31930ft 523kts
11-May-18 14:16 38.669783 -118.919271 136 32796ft 542kts
11-May-18 14:17 38.566736 -118.779340 138 33989ft 544kts
11-May-18 14:18 38.464297 -118.641006 138 35348ft 540kts
11-May-18 14:19 38.361557 -118.502919 138 36558ft 538kts
11-May-18 14:20 38.259312 -118.366110 138 37586ft 537kts
11-May-18 14:21 38.158762 -118.232130 139 38379ft 537kts
11-May-18 14:22 38.055655 -118.095349 139 38829ft 537kts
11-May-18 14:23 37.952528 -117.959126 139 38841ft 538kts
11-May-18 14:24 37.849453 -117.823550 139 38824ft 537kts
11-May-18 14:25 37.745670 -117.687635 139 38909ft 536kts
11-May-18 14:26 37.642352 -117.552916 139 38963ft 537kts
11-May-18 14:27 37.538490 -117.418061 139 38958ft 538kts
11-May-18 14:28 37.434307 -117.284792 146 38983ft 533kts
11-May-18 14:29 37.314977 -117.180164 154 38974ft 523kts
11-May-18 14:30 37.194552 -117.078263 154 38966ft 522kts
11-May-18 14:31 37.075064 -116.977511 154 39016ft 516kts
11-May-18 14:32 36.957634 -116.878858 151 38993ft 501kts
11-May-18 14:33 36.844306 -116.784039 150 38743ft 490kts
11-May-18 14:34 36.759394 -116.649306 118 38700ft 508kts
11-May-18 14:35 36.694832 -116.493731 118 38695ft 507kts
11-May-18 14:36 36.629913 -116.338859 119 38705ft 507kts
11-May-18 14:37 36.564746 -116.184152 119 38709ft 506kts
11-May-18 14:38 36.499258 -116.029422 119 38718ft 507kts
11-May-18 14:39 36.433557 -115.874920 119 38727ft 508kts
11-May-18 14:40 36.367372 -115.720005 119 38736ft 509kts
11-May-18 14:41 36.300989 -115.565363 119 38724ft 509kts
11-May-18 14:42 36.234563 -115.411343 119 38707ft 509kts
11-May-18 14:43 36.168574 -115.259039 120 38699ft 508kts
11-May-18 14:44 36.101570 -115.105111 120 38692ft 508kts
11-May-18 14:45 36.034788 -114.952410 121 38691ft 508kts
11-May-18 14:46 35.963751 -114.802503 126 38712ft 507kts
11-May-18 14:47 35.887329 -114.657278 126 38721ft 507kts
11-May-18 14:48 35.810576 -114.512017 126 38720ft 508kts
11-May-18 14:49 35.733487 -114.366730 126 38767ft 507kts
11-May-18 14:50 35.656902 -114.222996 127 38882ft 506kts
11-May-18 14:51 35.579727 -114.078765 127 38746ft 504kts
11-May-18 14:52 35.504637 -113.938999 127 36424ft 506kts
11-May-18 14:53 35.427024 -113.795191 127 33792ft 509kts
11-May-18 14:54 35.349128 -113.651415 127 31190ft 507kts
11-May-18 14:55 35.271763 -113.509183 127 29487ft 494kts
11-May-18 14:56 35.196437 -113.371307 128 28852ft 486kts
11-May-18 14:57 35.121876 -113.234908 128 28868ft 487kts
11-May-18 14:58 35.046889 -113.098129 128 28771ft 484kts
11-May-18 14:59 34.971897 -112.962702 127 28385ft 478kts
11-May-18 15:00 34.898375 -112.830358 126 27985ft 469kts
11-May-18 15:01 34.826095 -112.700752 126 27609ft 464kts
11-May-18 15:02 34.753776 -112.571552 126 27238ft 461kts
11-May-18 15:03 34.674375 -112.452493 144 26242ft 445kts
11-May-18 15:04 34.580428 -112.360753 145 24250ft 426kts
11-May-18 15:05 34.490818 -112.273342 146 22307ft 406kts
11-May-18 15:06 34.398035 -112.217534 173 20803ft 362kts
11-May-18 15:07 34.301180 -112.192543 173 18694ft 354kts
11-May-18 15:08 34.206859 -112.168139 173 16701ft 342kts
11-May-18 15:09 34.116732 -112.144847 173 15239ft 315kts
11-May-18 15:10 34.036671 -112.116758 167 14116ft 291kts
11-May-18 15:11 33.962182 -112.086484 167 12822ft 275kts
11-May-18 15:12 33.892045 -112.058020 167 11599ft 262kts
11-May-18 15:13 33.823310 -112.030178 167 10388ft 260kts
11-May-18 15:14 33.755043 -112.002530 167 9232ft 255kts
11-May-18 15:15 33.687661 -111.975310 167 8816ft 251kts
11-May-18 15:16 33.624644 -111.949800 167 8107ft 232kts
11-May-18 15:17 33.563109 -111.924990 167 7283ft 233kts
11-May-18 15:18 33.526719 -111.866197 94 7097ft 262kts
11-May-18 15:19 33.527892 -111.778635 91 7093ft 264kts
11-May-18 15:20 33.530254 -111.692690 91 6539ft 247kts
11-May-18 15:21 33.515647 -111.624571 164 5192ft 200kts
11-May-18 15:22 33.464537 -111.616903 223 5081ft 181kts
11-May-18 15:23 33.442214 -111.669184 258 5079ft 179kts
11-May-18 15:24 33.441004 -111.718830 266 5076ft 179kts
11-May-18 15:25 33.440919 -111.778460 267 4668ft 175kts
11-May-18 15:26 33.440855 -111.831972 267 3729ft 150kts
11-May-18 15:27 33.440850 -111.879175 266 3016ft 129kts
11-May-18 15:28 33.440794 -111.919949 266 2339ft 121kts
11-May-18 15:29 33.440840 -111.961147 266 1679ft 123kts
11-May-18 15:30 33.440840 -112.001396 270 1133ft 95kts
11-May-18 15:31 33.440302 -112.010844 185 1128ft 0kts
11-May-18 15:32 33.439936 -112.010744 144 1128ft 9kts
11-May-18 15:33 33.439738 -112.004885 89 1131ft 20kts
11-May-18 15:34 33.439042 -112.000011 89 1133ft 12kts
11-May-18 15:35 33.437856 -111.997656 89 1134ft 5kts
11-May-18 15:36 33.437858 -111.997351 89 1134ft 0kts

Navigation Log

Ident Type
Flight plan parsing failed, navigation log unavailable